^^
Saratoga-Weather Station Historical Data
Daily Summary for May 28, 2021 Units:  Metric    English   Both
Daily Weekly Monthly Yearly Custom
  High: Low: Average:
Temperature: 16.1 °C 12.3 °C 13.8 °C
Dew Point: 13.6 °C 10.5 °C 11.6 °C
Humidity: 89% 81% 87%
Wind Speed: 14.3km/h 0km/h 4.5km/h
Wind Gust: 14.5km/h - -
Wind- - West
Pressure: 1018.0 hPa 1017.3 hPa -
Precipitation: 0.2 mm    
Historical Graphs
 
 
Tabular Data for May 28, 2021
Time Temperature Dew Point Pressure Wind Wind Speed Wind Gust Humidity Rainfall Rate (Hourly) solar
00:00 15 °C 11.8 °C 1017.6 hPa WNW 6.4 km/h 9.7 km/h 81% 0.0 mm 0 W/m2
00:05 14.8 °C 11.6 °C 1017.6 hPa West 9.7 km/h 9.7 km/h 81% 0.0 mm 0 W/m2
00:10 14.8 °C 11.8 °C 1017.6 hPa WNW 3.2 km/h 9.7 km/h 82% 0.0 mm 0 W/m2
00:15 14.7 °C 11.7 °C 1017.6 hPa West 6.4 km/h 6.4 km/h 82% 0.0 mm 0 W/m2
00:20 14.6 °C 11.6 °C 1017.6 hPa NW 1.4 km/h 4.8 km/h 82% 0.0 mm 0 W/m2
00:25 14.5 °C 11.5 °C 1017.6 hPa WNW 6.4 km/h 6.4 km/h 82% 0.0 mm 0 W/m2
00:30 14.4 °C 11.5 °C 1017.6 hPa WNW 4.7 km/h 6.4 km/h 83% 0.0 mm 0 W/m2
00:35 14.3 °C 11.5 °C 1017.6 hPa West 1.4 km/h 3.2 km/h 83% 0.0 mm 0 W/m2
00:40 14.2 °C 11.5 °C 1017.6 hPa WNW 1.4 km/h 3.2 km/h 84% 0.0 mm 0 W/m2
00:45 14.1 °C 11.4 °C 1017.6 hPa West 1.4 km/h 3.2 km/h 84% 0.0 mm 0 W/m2
00:50 13.9 °C 11.4 °C 1017.6 hPa WNW 1.4 km/h 4.8 km/h 85% 0.0 mm 0 W/m2
00:55 13.8 °C 11.3 °C 1017.6 hPa WNW 3.2 km/h 9.7 km/h 85% 0.0 mm 0 W/m2
01:01 13.7 °C 11.2 °C 1017.6 hPa West 4.7 km/h 4.8 km/h 85% 0.0 mm 0 W/m2
01:06 13.7 °C 11.4 °C 1017.6 hPa West 3.2 km/h 6.4 km/h 86% 0.0 mm 0 W/m2
01:11 13.7 °C 11.4 °C 1017.6 hPa West 3.2 km/h 4.8 km/h 86% 0.0 mm 0 W/m2
01:16 13.7 °C 11.4 °C 1017.6 hPa West 4.7 km/h 6.4 km/h 86% 0.0 mm 0 W/m2
01:21 13.7 °C 11.4 °C 1017.6 hPa WNW 1.4 km/h 9.7 km/h 86% 0.0 mm 0 W/m2
01:26 13.7 °C 11.4 °C 1017.6 hPa West 13 km/h 12.9 km/h 86% 0.0 mm 0 W/m2
01:31 13.8 °C 11.3 °C 1017.6 hPa WNW 4.7 km/h 8 km/h 85% 0.0 mm 0 W/m2
01:36 13.8 °C 11.3 °C 1017.6 hPa West 4.7 km/h 9.7 km/h 85% 0.0 mm 0 W/m2
01:41 13.8 °C 11.3 °C 1017.6 hPa West 4.7 km/h 12.9 km/h 85% 0.0 mm 0 W/m2
01:46 13.8 °C 11.3 °C 1017.6 hPa West 3.2 km/h 12.9 km/h 85% 0.0 mm 0 W/m2
01:51 13.8 °C 11.3 °C 1017.6 hPa WNW 3.2 km/h 12.9 km/h 85% 0.0 mm 0 W/m2
01:56 13.8 °C 11.3 °C 1018.0 hPa WNW 3.2 km/h 4.8 km/h 85% 0.0 mm 0 W/m2
02:01 13.7 °C 11.2 °C 1018.0 hPa West 3.2 km/h 12.9 km/h 85% 0.0 mm 0 W/m2
02:06 13.6 °C 11.1 °C 1018.0 hPa WNW 1.4 km/h 9.7 km/h 85% 0.0 mm 0 W/m2
02:11 13.5 °C 11.2 °C 1018.0 hPa Calm   6.4 km/h 86% 0.0 mm 0 W/m2
02:16 13.5 °C 11.2 °C 1018.0 hPa WNW 3.2 km/h 11.3 km/h 86% 0.0 mm 0 W/m2
02:21 13.5 °C 11.2 °C 1018.0 hPa West 3.2 km/h 6.4 km/h 86% 0.0 mm 0 W/m2
02:26 13.5 °C 11.2 °C 1017.6 hPa WNW 3.2 km/h 11.3 km/h 86% 0.0 mm 0 W/m2
02:31 13.5 °C 11.2 °C 1017.6 hPa WNW 4.7 km/h 6.4 km/h 86% 0.0 mm 0 W/m2
02:36 13.4 °C 11.1 °C 1017.6 hPa NW 4.7 km/h 12.9 km/h 86% 0.0 mm 0 W/m2
02:41 13.4 °C 11.1 °C 1017.6 hPa West 3.2 km/h 6.4 km/h 86% 0.0 mm 0 W/m2
02:46 13.4 °C 11.1 °C 1017.6 hPa West 4.7 km/h 11.3 km/h 86% 0.0 mm 0 W/m2
02:51 13.3 °C 11 °C 1017.6 hPa WNW 3.2 km/h 6.4 km/h 86% 0.0 mm 0 W/m2
02:56 13.3 °C 11 °C 1017.6 hPa WNW 6.4 km/h 9.7 km/h 86% 0.0 mm 0 W/m2
03:01 13.3 °C 11 °C 1017.6 hPa WNW 6.4 km/h 9.7 km/h 86% 0.0 mm 0 W/m2
03:06 13.3 °C 11 °C 1017.6 hPa West 9.7 km/h 11.3 km/h 86% 0.0 mm 0 W/m2
03:11 13.3 °C 11 °C 1017.3 hPa West 4.7 km/h 11.3 km/h 86% 0.0 mm 0 W/m2
03:16 13.2 °C 11.1 °C 1017.3 hPa West 4.7 km/h 6.4 km/h 87% 0.0 mm 0 W/m2
03:21 13.2 °C 11.1 °C 1017.3 hPa SW 7.9 km/h 14.5 km/h 87% 0.0 mm 0 W/m2
03:26 13.2 °C 11.1 °C 1017.3 hPa West 4.7 km/h 9.7 km/h 87% 0.0 mm 0 W/m2
03:31 13.2 °C 11.1 °C 1017.3 hPa WSW 11.1 km/h 14.5 km/h 87% 0.0 mm 0 W/m2
03:36 13.1 °C 11 °C 1017.3 hPa WNW 4.7 km/h 9.7 km/h 87% 0.0 mm 0 W/m2
03:41 13.1 °C 11 °C 1017.3 hPa WNW 3.2 km/h 9.7 km/h 87% 0.0 mm 0 W/m2
03:46 13 °C 10.9 °C 1017.3 hPa West 4.7 km/h 6.4 km/h 87% 0.0 mm 0 W/m2
03:51 12.9 °C 10.8 °C 1017.3 hPa WNW 4.7 km/h 6.4 km/h 87% 0.0 mm 0 W/m2
03:56 12.8 °C 10.9 °C 1017.3 hPa West 4.7 km/h 9.7 km/h 88% 0.0 mm 0 W/m2
04:01 12.8 °C 10.9 °C 1017.3 hPa West 4.7 km/h 8 km/h 88% 0.0 mm 0 W/m2
04:06 12.7 °C 10.8 °C 1017.3 hPa WSW 4.7 km/h 6.4 km/h 88% 0.0 mm 0 W/m2
04:11 12.6 °C 10.7 °C 1017.3 hPa WSW 6.4 km/h 8 km/h 88% 0.0 mm 0 W/m2
04:16 12.6 °C 10.8 °C 1017.3 hPa WSW 4.7 km/h 4.8 km/h 89% 0.0 mm 0 W/m2
04:21 12.5 °C 10.7 °C 1017.6 hPa West 3.2 km/h 6.4 km/h 89% 0.0 mm 0 W/m2
04:26 12.4 °C 10.6 °C 1017.3 hPa West 4.7 km/h 9.7 km/h 89% 0.0 mm 0 W/m2
04:31 12.4 °C 10.6 °C 1017.6 hPa WSW 6.4 km/h 9.7 km/h 89% 0.0 mm 0 W/m2
04:36 12.5 °C 10.7 °C 1017.6 hPa WSW 6.4 km/h 9.7 km/h 89% 0.0 mm 0 W/m2
04:41 12.5 °C 10.7 °C 1017.6 hPa WNW 4.7 km/h 6.4 km/h 89% 0.0 mm 0 W/m2
04:46 12.5 °C 10.7 °C 1017.6 hPa West 6.4 km/h 11.3 km/h 89% 0.0 mm 0 W/m2
04:51 12.6 °C 10.8 °C 1017.6 hPa West 6.4 km/h 11.3 km/h 89% 0.0 mm 0 W/m2
04:56 12.6 °C 10.8 °C 1017.6 hPa West 3.2 km/h 9.7 km/h 89% 0.0 mm 0 W/m2
05:01 12.6 °C 10.8 °C 1017.6 hPa West 3.2 km/h 9.7 km/h 89% 0.0 mm 0 W/m2
05:06 12.5 °C 10.7 °C 1017.6 hPa WNW 3.2 km/h 6.4 km/h 89% 0.0 mm 0 W/m2
05:11 12.5 °C 10.7 °C 1017.6 hPa West 3.2 km/h 4.8 km/h 89% 0.0 mm 0 W/m2
05:16 12.4 °C 10.6 °C 1017.3 hPa West 3.2 km/h 4.8 km/h 89% 0.0 mm 0 W/m2
05:21 12.4 °C 10.6 °C 1017.6 hPa WSW 7.9 km/h 9.7 km/h 89% 0.0 mm 0 W/m2
05:26 12.4 °C 10.6 °C 1017.3 hPa WSW 7.9 km/h 12.9 km/h 89% 0.0 mm 0 W/m2
05:31 12.4 °C 10.6 °C 1017.3 hPa WNW 6.4 km/h 9.7 km/h 89% 0.0 mm 0 W/m2
05:36 12.3 °C 10.5 °C 1017.6 hPa West 3.2 km/h 9.7 km/h 89% 0.0 mm 0 W/m2
05:41 12.3 °C 10.5 °C 1017.6 hPa WSW 6.4 km/h 6.4 km/h 89% 0.0 mm 0 W/m2
05:46 12.3 °C 10.5 °C 1017.6 hPa West 3.2 km/h 6.4 km/h 89% 0.0 mm 0 W/m2
05:51 12.3 °C 10.5 °C 1017.6 hPa West 3.2 km/h 6.4 km/h 89% 0.0 mm 0 W/m2
05:56 12.3 °C 10.5 °C 1017.6 hPa West 4.7 km/h 11.3 km/h 89% 0.0 mm 0 W/m2
06:01 12.4 °C 10.6 °C 1017.6 hPa WSW 14.3 km/h 14.5 km/h 89% 0.0 mm 0 W/m2
06:06 12.5 °C 10.7 °C 1017.6 hPa WNW 6.4 km/h 9.7 km/h 89% 0.0 mm 0 W/m2
06:11 12.6 °C 10.8 °C 1017.6 hPa WSW 9.7 km/h 14.5 km/h 89% 0.0 mm 0 W/m2
06:16 12.7 °C 10.8 °C 1017.6 hPa WSW 9.7 km/h 12.9 km/h 88% 0.0 mm 0 W/m2
06:21 12.8 °C 10.9 °C 1017.6 hPa West 6.4 km/h 9.7 km/h 88% 0.0 mm 0 W/m2
06:26 12.9 °C 11 °C 1017.6 hPa West 6.4 km/h 12.9 km/h 88% 0.0 mm 0 W/m2
06:31 12.9 °C 11 °C 1017.6 hPa WSW 4.7 km/h 11.3 km/h 88% 0.0 mm 0 W/m2
06:36 12.9 °C 11 °C 1017.3 hPa WSW 6.4 km/h 12.9 km/h 88% 0.0 mm 0 W/m2
06:41 12.9 °C 11 °C 1017.3 hPa West 4.7 km/h 12.9 km/h 88% 0.0 mm 0 W/m2
06:46 13 °C 11.1 °C 1017.3 hPa SW 3.2 km/h 8 km/h 88% 0.0 mm 0 W/m2
06:51 13 °C 11.1 °C 1017.3 hPa WSW 7.9 km/h 12.9 km/h 88% 0.0 mm 0 W/m2
06:56 13 °C 10.9 °C 1017.3 hPa WSW 7.9 km/h 8 km/h 87% 0.0 mm 5 W/m2
07:01 13.1 °C 11 °C 1017.6 hPa WSW 7.9 km/h 11.3 km/h 87% 0.0 mm 5 W/m2
07:06 13.1 °C 11 °C 1017.3 hPa WSW 6.4 km/h 12.9 km/h 87% 0.0 mm 7 W/m2
07:11 13 °C 10.9 °C 1017.3 hPa WSW 4.7 km/h 6.4 km/h 87% 0.0 mm 9 W/m2
07:16 13 °C 10.9 °C 1017.3 hPa West 4.7 km/h 12.9 km/h 87% 0.0 mm 11 W/m2
07:21 13 °C 10.9 °C 1017.3 hPa WSW 4.7 km/h 6.4 km/h 87% 0.0 mm 12 W/m2
07:26 12.9 °C 10.8 °C 1017.3 hPa West 3.2 km/h 11.3 km/h 87% 0.0 mm 12 W/m2
07:31 12.9 °C 10.8 °C 1017.6 hPa West 3.2 km/h 4.8 km/h 87% 0.0 mm 14 W/m2
07:36 12.9 °C 11 °C 1017.6 hPa WNW 1.4 km/h 9.7 km/h 88% 0.0 mm 19 W/m2
07:41 12.9 °C 11 °C 1017.6 hPa WNW 4.7 km/h 6.4 km/h 88% 0.0 mm 23 W/m2
07:46 12.9 °C 11 °C 1017.6 hPa WNW 3.2 km/h 6.4 km/h 88% 0.0 mm 28 W/m2
07:52 12.9 °C 11 °C 1017.6 hPa WNW 3.2 km/h 9.7 km/h 88% 0.0 mm 32 W/m2
07:57 12.9 °C 11 °C 1017.6 hPa West 4.7 km/h 6.4 km/h 88% 0.0 mm 32 W/m2
08:02 12.9 °C 11 °C 1017.6 hPa West 1.4 km/h 4.8 km/h 88% 0.0 mm 33 W/m2
08:07 12.9 °C 11 °C 1017.6 hPa WNW 3.2 km/h 8 km/h 88% 0.0 mm 40 W/m2
08:12 13 °C 11.1 °C 1017.6 hPa West 1.4 km/h 4.8 km/h 88% 0.0 mm 33 W/m2
08:17 13 °C 11.1 °C 1017.6 hPa WSW 1.4 km/h 8 km/h 88% 0.0 mm 33 W/m2
08:22 13.1 °C 11.2 °C 1018.0 hPa West 1.4 km/h 4.8 km/h 88% 0.0 mm 37 W/m2
08:27 13.1 °C 11.3 °C 1018.0 hPa West 3.2 km/h 6.4 km/h 89% 0.0 mm 88 W/m2
08:32 13.1 °C 11.3 °C 1018.0 hPa West 1.4 km/h 3.2 km/h 89% 0.0 mm 40 W/m2
08:37 13.2 °C 11.4 °C 1017.6 hPa West 1.4 km/h 6.4 km/h 89% 0.0 mm 44 W/m2
08:42 13.2 °C 11.4 °C 1017.6 hPa Calm   1.6 km/h 89% 0.0 mm 49 W/m2
08:47 13.2 °C 11.4 °C 1017.6 hPa West 1.4 km/h 3.2 km/h 89% 0.0 mm 100 W/m2
08:52 13.3 °C 11.5 °C 1017.6 hPa WSW 3.2 km/h 4.8 km/h 89% 0.0 mm 109 W/m2
08:57 13.5 °C 11.7 °C 1017.6 hPa WNW 6.4 km/h 9.7 km/h 89% 0.0 mm 104 W/m2
09:02 13.7 °C 11.7 °C 1018.0 hPa NW 1.4 km/h 6.4 km/h 88% 0.0 mm 142 W/m2
09:07 13.8 °C 11.7 °C 1018.0 hPa West 3.2 km/h 9.7 km/h 87% 0.0 mm 148 W/m2
09:12 13.9 °C 11.8 °C 1017.6 hPa WNW 3.2 km/h 6.4 km/h 87% 0.0 mm 153 W/m2
09:17 14.2 °C 12.1 °C 1017.6 hPa WSW 3.2 km/h 6.4 km/h 87% 0.0 mm 181 W/m2
09:22 14.3 °C 12 °C 1017.6 hPa WNW 4.7 km/h 6.4 km/h 86% 0.0 mm 202 W/m2
09:27 14.5 °C 12.2 °C 1017.6 hPa NW 4.7 km/h 8 km/h 86% 0.0 mm 218 W/m2
09:32 14.7 °C 12.2 °C 1017.6 hPa WNW 3.2 km/h 11.3 km/h 85% 0.0 mm 214 W/m2
09:37 14.8 °C 12.3 °C 1017.6 hPa NW 3.2 km/h 8 km/h 85% 0.0 mm 142 W/m2
09:42 14.9 °C 12.2 °C 1017.6 hPa NW 6.4 km/h 12.9 km/h 84% 0.0 mm 234 W/m2
09:47 15.1 °C 12.4 °C 1017.6 hPa WNW 7.9 km/h 11.3 km/h 84% 0.0 mm 260 W/m2
09:52 15.2 °C 12.5 °C 1017.6 hPa West 4.7 km/h 12.9 km/h 84% 0.0 mm 211 W/m2
09:57 15.3 °C 12.6 °C 1017.6 hPa West 3.2 km/h 9.7 km/h 84% 0.0 mm 167 W/m2
10:02 15.3 °C 12.4 °C 1017.6 hPa NW 1.4 km/h 4.8 km/h 83% 0.0 mm 139 W/m2
10:07 15.4 °C 12.5 °C 1017.6 hPa West 4.7 km/h 12.9 km/h 83% 0.0 mm 151 W/m2
10:12 15.4 °C 12.5 °C 1017.6 hPa NW 1.4 km/h 3.2 km/h 83% 0.0 mm 193 W/m2
10:17 15.6 °C 12.7 °C 1017.6 hPa WNW 3.2 km/h 6.4 km/h 83% 0.0 mm 200 W/m2
10:22 15.7 °C 12.6 °C 1017.6 hPa WNW 3.2 km/h 4.8 km/h 82% 0.0 mm 142 W/m2
10:27 15.8 °C 12.7 °C 1017.6 hPa WNW 6.4 km/h 6.4 km/h 82% 0.0 mm 123 W/m2
10:32 15.7 °C 12.8 °C 1017.6 hPa West 11.1 km/h 14.5 km/h 83% 0.0 mm 123 W/m2
10:37 15.3 °C 12.8 °C 1018.0 hPa North 4.7 km/h 6.4 km/h 85% 0.0 mm 125 W/m2
10:42 15.2 °C 12.9 °C 1018.0 hPa West 3.2 km/h 14.5 km/h 86% 0.0 mm 139 W/m2
10:47 15.1 °C 13.1 °C 1018.0 hPa WNW 1.4 km/h 3.2 km/h 88% 0.0 mm 137 W/m2
10:52 15.2 °C 13.4 °C 1018.0 hPa WNW 3.2 km/h 6.4 km/h 89% 0.0 mm 195 W/m2
10:57 15.2 °C 13.4 °C 1017.6 hPa WNW 3.2 km/h 3.2 km/h 89% 0.2 mm 258 W/m2
11:02 15.4 °C 13.6 °C 1018.0 hPa WNW 3.2 km/h 6.4 km/h 89% 0.2 mm 172 W/m2
11:07 15.6 °C 13.6 °C 1017.6 hPa WNW 3.2 km/h 4.8 km/h 88% 0.2 mm 223 W/m2
11:12 15.7 °C 13.5 °C 1018.0 hPa WNW 6.4 km/h 9.7 km/h 87% 0.2 mm 237 W/m2
11:17 15.8 °C 13.3 °C 1018.0 hPa West 3.2 km/h 9.7 km/h 85% 0.2 mm 121 W/m2
11:22 15.8 °C 13.5 °C 1017.6 hPa West 6.4 km/h 8 km/h 86% 0.2 mm 116 W/m2
11:27 15.8 °C 13.5 °C 1018.0 hPa West 3.2 km/h 6.4 km/h 86% 0.2 mm 102 W/m2
11:32 15.7 °C 13.4 °C 1018.0 hPa WSW 3.2 km/h 14.5 km/h 86% 0.2 mm 81 W/m2
11:37 15.6 °C 13.1 °C 1017.6 hPa WSW 4.7 km/h 12.9 km/h 85% 0.2 mm 54 W/m2
11:42 15.6 °C 13.3 °C 1017.6 hPa WNW 4.7 km/h 14.5 km/h 86% 0.2 mm 83 W/m2
11:47 15.6 °C 13.3 °C 1017.6 hPa West 3.2 km/h 11.3 km/h 86% 0.2 mm 135 W/m2
11:52 15.6 °C 13.4 °C 1017.6 hPa WNW 1.4 km/h 6.4 km/h 87% 0.2 mm 120 W/m2
11:57 15.7 °C 13.5 °C 1017.6 hPa WNW 4.7 km/h 11.3 km/h 87% 0.0 mm 162 W/m2
12:02 15.8 °C 13.5 °C 1017.6 hPa WNW 3.2 km/h 6.4 km/h 86% 0.0 mm 162 W/m2
12:07 15.9 °C 13.6 °C 1017.6 hPa West 9.7 km/h 9.7 km/h 86% 0.0 mm 130 W/m2
12:12 16.1 °C 13.6 °C 1017.6 hPa West 9.7 km/h 9.7 km/h 85% 0.0 mm 79 W/m2
12:17 16.1 °C 13.6 °C 1017.6 hPa West 4.7 km/h 11.3 km/h 85% 0.0 mm 56 W/m2
12:22 16.1 °C 13.4 °C 1017.6 hPa WSW 4.7 km/h 12.9 km/h 84% 0.0 mm 105 W/m2
12:27 16.1 °C 13.6 °C 1017.6 hPa West 4.7 km/h 9.7 km/h 85% 0.0 mm 109 W/m2
Juneau County Weather
Compliments of Weather Underground - 4 mb